Dickinson, ND

7:42 PM MDT on July 11, 2014 (GMT -0600)
Dickinson Municipal (KDIK) Elev 2592 ft | 46.80 °N, 102.80 °W | Change Station

Current weather conditions updated 46 minutes ago

Overcast
Overcast
74 °F
Feels Like 74 °F
N
6
Wind Variable Wind from NE

Tomorrow is forecast to be nearly the same temperature as today.

Today
High -- | Low -- °F
--% Chance of Precip.
Yesterday
High -- | Low -- °F
Precip. -- in
5:08 AM 8:44 PM
Full, 100% visible
Pressure 30.06 in
Visibility 10.0 miles
Clouds Overcast 9500 ft
Dew Point 56 °F
Humidity 53%
Rainfall 0.01 in
Snow Depth Not available.
UV 0 out of 12
Pollen 4.90 out of 12
Air Quality Not available.
Flu Activity Sporadic
METAR KDIK 120056Z AUTO 05005KT 10SM OVC095 23/13 A3010 RMK AO2 SLP178 T02330133

More Conditions Fewer Conditions

Pressure 30.06 in
Visibility 10.0 miles
Clouds Overcast 9500 ft
Dew Point 56 °F
Humidity 53%
Rainfall 0.01 in
Snow Depth Not available.
UV 0 out of 12
Pollen 4.90 out of 12
Air Quality Not available.
Flu Activity Sporadic
METAR KDIK 120056Z AUTO 05005KT 10SM OVC095 23/13 A3010 RMK AO2 SLP178 T02330133

More Conditions Fewer Conditions

10-Day Weather Forecast

Almanac

Astronomy

Jul. 11, 2014 Rise Set
Actual Time 5:08 AM MDT 8:44 PM MDT
Civil Twilight 4:29 AM MDT 9:23 PM MDT
Nautical Twilight 3:38 AM MDT 10:14 PM MDT
Astronomical Twilight 2:28 AM MDT 11:23 PM MDT
Moon 7:51 PM MDT (7/11) 4:26 AM MDT (7/11)
Length of Visible Light 16h 53m
Length of Day
15h 36m
Tomorrow will be 1m 34s shorter.
Full, 100% of the Moon is Illuminated
Today
Full
Jul 12
Full
Jul 18
Last Quarter
Jul 26
New
Aug 3
First Quarter

Today's Extremes

State Highs State Lows

Community

WunderPhotos

Upload Photos

1,732,634 photos uploaded!

WunderBlogs® & News

Nearby

Snow Depth

Station Depth Elevation
No new snow has been reported.

Earthquake Activity

City Distance Mag. Time & Date
No recent earthquake activity has been reported nearby.
Minimum magnitude displayed is 2.5.

Coastal Water Temperatures

Place Temperature
No Stations Reporting

Nearby Weather Stations

There are no personal weather stations in this area.